sensor_id;sensor_type;location;lat;lon;timestamp;pressure;altitude;pressure_sealevel;temperature;humidity
34979;BME280;21185;50.978;13.720;2022-12-07T00:04:35;97995.31;;;3.59;83.22
34979;BME280;21185;50.978;13.720;2022-12-07T00:09:37;97983.31;;;3.60;83.40
34979;BME280;21185;50.978;13.720;2022-12-07T00:14:40;97975.50;;;3.61;83.07
34979;BME280;21185;50.978;13.720;2022-12-07T00:19:42;97972.91;;;3.61;83.06
34979;BME280;21185;50.978;13.720;2022-12-07T00:24:44;97979.13;;;3.58;83.16
34979;BME280;21185;50.978;13.720;2022-12-07T00:29:46;97961.28;;;3.57;83.07
34979;BME280;21185;50.978;13.720;2022-12-07T00:34:48;97966.53;;;3.55;83.03
34979;BME280;21185;50.978;13.720;2022-12-07T00:39:49;97962.34;;;3.54;82.84
34979;BME280;21185;50.978;13.720;2022-12-07T00:44:51;97961.53;;;3.54;83.04
34979;BME280;21185;50.978;13.720;2022-12-07T00:49:53;97952.78;;;3.56;83.03
34979;BME280;21185;50.978;13.720;2022-12-07T00:54:55;97950.91;;;3.58;82.97
34979;BME280;21185;50.978;13.720;2022-12-07T00:59:57;97955.91;;;3.60;82.99
34979;BME280;21185;50.978;13.720;2022-12-07T01:04:59;97955.09;;;3.60;82.76
34979;BME280;21185;50.978;13.720;2022-12-07T01:10:01;97956.72;;;3.61;83.04
34979;BME280;21185;50.978;13.720;2022-12-07T01:15:04;97952.28;;;3.63;83.02
34979;BME280;21185;50.978;13.720;2022-12-07T01:20:06;97946.19;;;3.64;83.01
34979;BME280;21185;50.978;13.720;2022-12-07T01:25:10;97950.53;;;3.63;82.96
34979;BME280;21185;50.978;13.720;2022-12-07T01:30:13;97953.34;;;3.60;82.65
34979;BME280;21185;50.978;13.720;2022-12-07T01:35:15;97952.53;;;3.60;82.84
34979;BME280;21185;50.978;13.720;2022-12-07T01:40:17;97951.97;;;3.56;82.65
34979;BME280;21185;50.978;13.720;2022-12-07T01:45:37;97950.34;;;3.55;82.65
34979;BME280;21185;50.978;13.720;2022-12-07T01:50:41;97949.09;;;3.49;82.63
34979;BME280;21185;50.978;13.720;2022-12-07T01:55:45;97947.59;;;3.47;82.52
34979;BME280;21185;50.978;13.720;2022-12-07T02:00:49;97954.34;;;3.48;82.54
34979;BME280;21185;50.978;13.720;2022-12-07T02:05:52;97952.03;;;3.45;82.44
34979;BME280;21185;50.978;13.720;2022-12-07T02:10:55;97956.72;;;3.40;82.47
34979;BME280;21185;50.978;13.720;2022-12-07T02:26:55;97933.69;;;3.29;82.46
34979;BME280;21185;50.978;13.720;2022-12-07T02:42:53;97925.63;;;3.33;82.63
34979;BME280;21185;50.978;13.720;2022-12-07T02:47:58;97917.81;;;3.35;82.61
34979;BME280;21185;50.978;13.720;2022-12-07T02:53:01;97906.63;;;3.36;82.51
34979;BME280;21185;50.978;13.720;2022-12-07T02:58:23;97898.91;;;3.36;82.50
34979;BME280;21185;50.978;13.720;2022-12-07T03:03:30;97908.38;;;3.35;82.40
34979;BME280;21185;50.978;13.720;2022-12-07T03:08:47;97904.75;;;3.38;82.66
34979;BME280;21185;50.978;13.720;2022-12-07T03:14:09;97905.69;;;3.37;82.55
34979;BME280;21185;50.978;13.720;2022-12-07T03:19:17;97899.75;;;3.36;82.47
34979;BME280;21185;50.978;13.720;2022-12-07T03:24:26;97881.78;;;3.36;82.56
34979;BME280;21185;50.978;13.720;2022-12-07T03:29:34;97874.34;;;3.33;82.52
34979;BME280;21185;50.978;13.720;2022-12-07T03:34:51;97870.28;;;3.31;82.38
34979;BME280;21185;50.978;13.720;2022-12-07T03:44:57;97873.84;;;3.18;82.21
34979;BME280;21185;50.978;13.720;2022-12-07T03:50:11;97880.16;;;3.14;82.26
34979;BME280;21185;50.978;13.720;2022-12-07T03:55:33;97874.34;;;3.12;82.20
34979;BME280;21185;50.978;13.720;2022-12-07T04:00:37;97872.59;;;3.13;82.19
34979;BME280;21185;50.978;13.720;2022-12-07T04:05:39;97869.91;;;3.14;82.15
34979;BME280;21185;50.978;13.720;2022-12-07T04:10:41;97863.41;;;3.10;82.13
34979;BME280;21185;50.978;13.720;2022-12-07T04:15:43;97860.03;;;3.10;82.18
34979;BME280;21185;50.978;13.720;2022-12-07T04:20:46;97840.59;;;3.07;82.16
34979;BME280;21185;50.978;13.720;2022-12-07T04:25:48;97839.91;;;3.05;82.10
34979;BME280;21185;50.978;13.720;2022-12-07T04:30:50;97837.59;;;3.02;82.04
34979;BME280;21185;50.978;13.720;2022-12-07T04:35:52;97841.47;;;2.97;81.89
34979;BME280;21185;50.978;13.720;2022-12-07T04:40:53;97830.91;;;2.90;81.98
34979;BME280;21185;50.978;13.720;2022-12-07T04:45:55;97823.59;;;2.85;81.82
34979;BME280;21185;50.978;13.720;2022-12-07T04:50:57;97807.53;;;2.83;82.00
34979;BME280;21185;50.978;13.720;2022-12-07T04:55:59;97797.53;;;2.80;81.64
34979;BME280;21185;50.978;13.720;2022-12-07T05:01:02;97808.84;;;2.78;81.91
34979;BME280;21185;50.978;13.720;2022-12-07T05:06:04;97791.97;;;2.75;81.87
34979;BME280;21185;50.978;13.720;2022-12-07T05:11:14;97791.16;;;2.75;81.66
34979;BME280;21185;50.978;13.720;2022-12-07T05:16:37;97782.78;;;2.73;81.73
34979;BME280;21185;50.978;13.720;2022-12-07T05:21:40;97789.78;;;2.71;81.56
34979;BME280;21185;50.978;13.720;2022-12-07T05:26:43;97783.16;;;2.68;81.62
34979;BME280;21185;50.978;13.720;2022-12-07T05:31:45;97793.28;;;2.70;81.57
34979;BME280;21185;50.978;13.720;2022-12-07T05:36:47;97781.84;;;2.74;81.58
34979;BME280;21185;50.978;13.720;2022-12-07T05:41:49;97779.03;;;2.77;81.54
34979;BME280;21185;50.978;13.720;2022-12-07T05:47:13;97769.59;;;2.77;81.46
34979;BME280;21185;50.978;13.720;2022-12-07T05:52:15;97764.47;;;2.77;81.54
34979;BME280;21185;50.978;13.720;2022-12-07T05:57:17;97749.91;;;2.78;81.34
34979;BME280;21185;50.978;13.720;2022-12-07T06:02:19;97748.28;;;2.77;81.28
34979;BME280;21185;50.978;13.720;2022-12-07T06:07:21;97750.72;;;2.78;81.29
34979;BME280;21185;50.978;13.720;2022-12-07T06:12:23;97750.59;;;2.80;81.37
34979;BME280;21185;50.978;13.720;2022-12-07T06:17:38;97753.97;;;2.80;81.39
34979;BME280;21185;50.978;13.720;2022-12-07T06:22:40;97740.09;;;2.83;81.33
34979;BME280;21185;50.978;13.720;2022-12-07T06:27:42;97747.66;;;2.84;81.19
34979;BME280;21185;50.978;13.720;2022-12-07T06:32:44;97736.59;;;2.84;81.35
34979;BME280;21185;50.978;13.720;2022-12-07T06:37:46;97742.53;;;2.84;81.21
34979;BME280;21185;50.978;13.720;2022-12-07T06:42:47;97749.16;;;2.87;81.04
34979;BME280;21185;50.978;13.720;2022-12-07T06:47:52;97747.03;;;2.92;80.97
34979;BME280;21185;50.978;13.720;2022-12-07T06:52:54;97738.13;;;2.96;81.39
34979;BME280;21185;50.978;13.720;2022-12-07T06:57:56;97744.88;;;2.97;81.39
34979;BME280;21185;50.978;13.720;2022-12-07T07:02:58;97755.94;;;2.98;81.51
34979;BME280;21185;50.978;13.720;2022-12-07T07:08:00;97746.50;;;2.98;81.61
34979;BME280;21185;50.978;13.720;2022-12-07T07:13:22;97755.13;;;2.97;81.57
34979;BME280;21185;50.978;13.720;2022-12-07T07:18:24;97756.06;;;2.96;81.62
34979;BME280;21185;50.978;13.720;2022-12-07T07:23:26;97756.06;;;2.96;81.70
34979;BME280;21185;50.978;13.720;2022-12-07T07:28:28;97764.72;;;2.95;81.77
34979;BME280;21185;50.978;13.720;2022-12-07T07:33:30;97768.22;;;2.94;81.81
34979;BME280;21185;50.978;13.720;2022-12-07T07:38:31;97771.03;;;2.91;81.86
34979;BME280;21185;50.978;13.720;2022-12-07T07:43:33;97772.78;;;2.90;82.04
34979;BME280;21185;50.978;13.720;2022-12-07T07:48:35;97775.09;;;2.93;82.08
34979;BME280;21185;50.978;13.720;2022-12-07T07:53:37;97773.91;;;2.98;82.45
34979;BME280;21185;50.978;13.720;2022-12-07T07:58:39;97782.25;;;3.00;82.50
34979;BME280;21185;50.978;13.720;2022-12-07T08:03:40;97781.06;;;3.04;82.62
34979;BME280;21185;50.978;13.720;2022-12-07T08:08:42;97785.94;;;3.07;82.71
34979;BME280;21185;50.978;13.720;2022-12-07T08:13:47;97790.69;;;3.11;82.84
34979;BME280;21185;50.978;13.720;2022-12-07T08:18:49;97794.88;;;3.12;83.10
34979;BME280;21185;50.978;13.720;2022-12-07T08:23:51;97786.69;;;3.18;83.08
34979;BME280;21185;50.978;13.720;2022-12-07T08:28:52;97770.91;;;3.23;83.35
34979;BME280;21185;50.978;13.720;2022-12-07T08:33:54;97777.41;;;3.27;83.37
34979;BME280;21185;50.978;13.720;2022-12-07T08:38:56;97765.81;;;3.33;83.51
34979;BME280;21185;50.978;13.720;2022-12-07T08:44:18;97776.50;;;3.38;83.54
34979;BME280;21185;50.978;13.720;2022-12-07T08:49:24;97775.06;;;3.45;83.41
34979;BME280;21185;50.978;13.720;2022-12-07T08:54:28;97774.66;;;3.49;83.59
34979;BME280;21185;50.978;13.720;2022-12-07T08:59:30;97784.13;;;3.58;83.49
34979;BME280;21185;50.978;13.720;2022-12-07T09:04:32;97774.84;;;3.67;83.66
34979;BME280;21185;50.978;13.720;2022-12-07T09:09:34;97779.31;;;3.75;83.68
34979;BME280;21185;50.978;13.720;2022-12-07T09:14:36;97780.03;;;3.86;83.79
34979;BME280;21185;50.978;13.720;2022-12-07T09:19:38;97776.53;;;3.97;83.67
34979;BME280;21185;50.978;13.720;2022-12-07T09:24:40;97775.75;;;4.06;83.59
34979;BME280;21185;50.978;13.720;2022-12-07T09:29:41;97774.94;;;4.15;83.56
34979;BME280;21185;50.978;13.720;2022-12-07T09:34:43;97768.72;;;4.18;83.55
34979;BME280;21185;50.978;13.720;2022-12-07T09:39:45;97778.03;;;4.19;83.58
34979;BME280;21185;50.978;13.720;2022-12-07T09:45:05;97776.97;;;4.21;83.22
34979;BME280;21185;50.978;13.720;2022-12-07T09:50:17;97770.88;;;4.22;83.34
34979;BME280;21185;50.978;13.720;2022-12-07T09:55:27;97769.13;;;4.23;83.19
34979;BME280;21185;50.978;13.720;2022-12-07T10:00:29;97776.28;;;4.29;83.15
34979;BME280;21185;50.978;13.720;2022-12-07T10:05:43;97766.69;;;4.31;83.12
34979;BME280;21185;50.978;13.720;2022-12-07T10:10:51;97768.72;;;4.37;82.94
34979;BME280;21185;50.978;13.720;2022-12-07T10:15:55;97750.59;;;4.39;82.82
34979;BME280;21185;50.978;13.720;2022-12-07T10:26:32;97750.88;;;4.45;82.44
34979;BME280;21185;50.978;13.720;2022-12-07T10:31:38;97745.47;;;4.48;82.63
34979;BME280;21185;50.978;13.720;2022-12-07T10:36:41;97752.63;;;4.54;82.21
34979;BME280;21185;50.978;13.720;2022-12-07T10:41:57;97746.00;;;4.62;82.45
34979;BME280;21185;50.978;13.720;2022-12-07T10:47:09;97746.53;;;4.65;82.45
34979;BME280;21185;50.978;13.720;2022-12-07T11:13:25;97719.06;;;4.66;82.28
34979;BME280;21185;50.978;13.720;2022-12-07T11:40:05;97716.66;;;4.54;82.44
34979;BME280;21185;50.978;13.720;2022-12-07T11:45:17;97704.63;;;4.45;82.78
34979;BME280;21185;50.978;13.720;2022-12-07T11:55:36;97701.28;;;4.35;82.84
34979;BME280;21185;50.978;13.720;2022-12-07T12:00:41;97699.50;;;4.36;82.71
34979;BME280;21185;50.978;13.720;2022-12-07T12:05:43;97699.22;;;4.39;83.14
34979;BME280;21185;50.978;13.720;2022-12-07T12:11:00;97699.50;;;4.45;83.10
34979;BME280;21185;50.978;13.720;2022-12-07T12:21:26;97691.94;;;4.44;83.40
34979;BME280;21185;50.978;13.720;2022-12-07T12:26:32;97695.44;;;4.43;83.10
34979;BME280;21185;50.978;13.720;2022-12-07T12:31:39;97698.44;;;4.38;83.04
34979;BME280;21185;50.978;13.720;2022-12-07T12:36:45;97694.78;;;4.31;83.11
34979;BME280;21185;50.978;13.720;2022-12-07T12:46:53;97702.38;;;4.13;82.75
34979;BME280;21185;50.978;13.720;2022-12-07T12:52:01;97694.41;;;4.07;82.81
34979;BME280;21185;50.978;13.720;2022-12-07T12:57:20;97699.53;;;3.97;82.76
34979;BME280;21185;50.978;13.720;2022-12-07T13:13:04;97688.84;;;3.82;82.75
34979;BME280;21185;50.978;13.720;2022-12-07T13:33:50;97667.09;;;3.96;83.07
34979;BME280;21185;50.978;13.720;2022-12-07T13:38:59;97660.34;;;4.05;83.24
34979;BME280;21185;50.978;13.720;2022-12-07T13:44:08;97658.56;;;4.15;83.35
34979;BME280;21185;50.978;13.720;2022-12-07T13:49:18;97671.53;;;4.23;83.53
34979;BME280;21185;50.978;13.720;2022-12-07T13:54:21;97679.66;;;4.28;83.56
34979;BME280;21185;50.978;13.720;2022-12-07T13:59:25;97683.69;;;4.31;83.79
34979;BME280;21185;50.978;13.720;2022-12-07T14:04:35;97683.56;;;4.32;83.77
34979;BME280;21185;50.978;13.720;2022-12-07T14:09:37;97683.28;;;4.35;83.75
34979;BME280;21185;50.978;13.720;2022-12-07T14:14:47;97683.00;;;4.38;83.86
34979;BME280;21185;50.978;13.720;2022-12-07T14:25:00;97680.44;;;4.38;83.55
34979;BME280;21185;50.978;13.720;2022-12-07T14:30:04;97689.91;;;4.38;83.61
34979;BME280;21185;50.978;13.720;2022-12-07T14:35:12;97677.19;;;4.36;83.63
34979;BME280;21185;50.978;13.720;2022-12-07T14:40:22;97675.03;;;4.32;83.29
34979;BME280;21185;50.978;13.720;2022-12-07T14:45:24;97669.50;;;4.27;83.33
34979;BME280;21185;50.978;13.720;2022-12-07T14:50:26;97662.88;;;4.24;83.21
34979;BME280;21185;50.978;13.720;2022-12-07T14:55:30;97670.88;;;4.21;83.37
34979;BME280;21185;50.978;13.720;2022-12-07T15:00:33;97671.94;;;4.18;83.25
34979;BME280;21185;50.978;13.720;2022-12-07T15:05:36;97676.41;;;4.16;83.28
34979;BME280;21185;50.978;13.720;2022-12-07T15:10:38;97678.31;;;4.14;83.32
34979;BME280;21185;50.978;13.720;2022-12-07T15:15:42;97681.69;;;4.15;83.20
34979;BME280;21185;50.978;13.720;2022-12-07T15:20:44;97671.41;;;4.15;83.10
34979;BME280;21185;50.978;13.720;2022-12-07T15:25:48;97683.31;;;4.16;83.27
34979;BME280;21185;50.978;13.720;2022-12-07T15:30:50;97676.41;;;4.16;83.19
34979;BME280;21185;50.978;13.720;2022-12-07T15:35:51;97675.59;;;4.16;82.87
34979;BME280;21185;50.978;13.720;2022-12-07T15:40:53;97680.06;;;4.14;82.88
34979;BME280;21185;50.978;13.720;2022-12-07T15:45:55;97669.25;;;4.10;82.74
34979;BME280;21185;50.978;13.720;2022-12-07T15:51:07;97674.53;;;4.09;82.93
34979;BME280;21185;50.978;13.720;2022-12-07T15:56:09;97671.16;;;4.08;82.94
34979;BME280;21185;50.978;13.720;2022-12-07T16:01:16;97666.97;;;4.07;82.86
34979;BME280;21185;50.978;13.720;2022-12-07T16:06:18;97684.13;;;4.07;82.78
34979;BME280;21185;50.978;13.720;2022-12-07T16:11:21;97682.50;;;4.06;82.79
34979;BME280;21185;50.978;13.720;2022-12-07T16:16:23;97670.88;;;4.02;82.74
34979;BME280;21185;50.978;13.720;2022-12-07T16:21:25;97675.34;;;4.00;82.71
34979;BME280;21185;50.978;13.720;2022-12-07T16:26:27;97681.69;;;3.96;82.53
34979;BME280;21185;50.978;13.720;2022-12-07T16:31:29;97680.06;;;3.95;82.63
34979;BME280;21185;50.978;13.720;2022-12-07T16:36:31;97676.81;;;3.93;82.61
34979;BME280;21185;50.978;13.720;2022-12-07T16:41:53;97678.72;;;3.90;82.33
34979;BME280;21185;50.978;13.720;2022-12-07T16:46:55;97679.53;;;3.91;82.58
34979;BME280;21185;50.978;13.720;2022-12-07T16:51:57;97678.72;;;3.90;82.46
34979;BME280;21185;50.978;13.720;2022-12-07T16:57:19;97683.03;;;3.90;82.25
34979;BME280;21185;50.978;13.720;2022-12-07T17:02:24;97697.38;;;3.93;82.37
34979;BME280;21185;50.978;13.720;2022-12-07T17:07:26;97690.19;;;3.96;82.40
34979;BME280;21185;50.978;13.720;2022-12-07T17:12:28;97696.16;;;3.97;82.17
34979;BME280;21185;50.978;13.720;2022-12-07T17:17:30;97689.25;;;3.97;82.48
34979;BME280;21185;50.978;13.720;2022-12-07T17:22:32;97695.47;;;3.95;82.30
34979;BME280;21185;50.978;13.720;2022-12-07T17:27:34;97695.47;;;3.95;82.39
34979;BME280;21185;50.978;13.720;2022-12-07T17:32:35;97688.84;;;3.92;82.45
34979;BME280;21185;50.978;13.720;2022-12-07T17:37:38;97690.59;;;3.92;82.46
34979;BME280;21185;50.978;13.720;2022-12-07T17:42:39;97697.63;;;3.89;82.43
34979;BME280;21185;50.978;13.720;2022-12-07T17:47:42;97687.63;;;3.86;82.38
34979;BME280;21185;50.978;13.720;2022-12-07T17:52:43;97686.16;;;3.84;82.38
34979;BME280;21185;50.978;13.720;2022-12-07T17:58:21;97699.78;;;3.84;82.37
34979;BME280;21185;50.978;13.720;2022-12-07T18:03:22;97686.00;;;3.85;82.37
34979;BME280;21185;50.978;13.720;2022-12-07T18:08:24;97687.63;;;3.86;82.37
34979;BME280;21185;50.978;13.720;2022-12-07T18:13:26;97699.66;;;3.86;82.33
34979;BME280;21185;50.978;13.720;2022-12-07T18:18:37;97698.16;;;3.83;82.35
34979;BME280;21185;50.978;13.720;2022-12-07T18:23:40;97701.00;;;3.80;82.30
34979;BME280;21185;50.978;13.720;2022-12-07T18:28:43;97703.28;;;3.74;82.12
34979;BME280;21185;50.978;13.720;2022-12-07T18:33:46;97702.75;;;3.70;82.34
34979;BME280;21185;50.978;13.720;2022-12-07T18:38:49;97706.53;;;3.66;82.14
34979;BME280;21185;50.978;13.720;2022-12-07T18:43:51;97708.28;;;3.66;82.09
34979;BME280;21185;50.978;13.720;2022-12-07T18:48:53;97715.41;;;3.62;82.23
34979;BME280;21185;50.978;13.720;2022-12-07T18:53:58;97708.94;;;3.58;82.06
34979;BME280;21185;50.978;13.720;2022-12-07T18:59:03;97710.81;;;3.56;81.85
34979;BME280;21185;50.978;13.720;2022-12-07T19:04:29;97709.47;;;3.52;81.80
34979;BME280;21185;50.978;13.720;2022-12-07T19:09:31;97704.59;;;3.49;81.90
34979;BME280;21185;50.978;13.720;2022-12-07T19:14:35;97705.53;;;3.48;81.86
34979;BME280;21185;50.978;13.720;2022-12-07T19:19:45;97709.72;;;3.49;81.89
34979;BME280;21185;50.978;13.720;2022-12-07T19:24:49;97696.91;;;3.49;82.03
34979;BME280;21185;50.978;13.720;2022-12-07T19:29:54;97702.03;;;3.49;82.04
34979;BME280;21185;50.978;13.720;2022-12-07T19:34:56;97694.34;;;3.49;82.04
34979;BME280;21185;50.978;13.720;2022-12-07T19:39:58;97692.56;;;3.49;81.99
34979;BME280;21185;50.978;13.720;2022-12-07T19:45:01;97690.81;;;3.50;82.02
34979;BME280;21185;50.978;13.720;2022-12-07T19:50:04;97694.88;;;3.52;82.07
34979;BME280;21185;50.978;13.720;2022-12-07T19:55:06;97685.31;;;3.54;82.15
34979;BME280;21185;50.978;13.720;2022-12-07T20:00:09;97681.66;;;3.57;82.16
34979;BME280;21185;50.978;13.720;2022-12-07T20:05:10;97684.22;;;3.57;82.29
34979;BME280;21185;50.978;13.720;2022-12-07T20:10:13;97680.59;;;3.60;82.26
34979;BME280;21185;50.978;13.720;2022-12-07T20:15:15;97684.91;;;3.59;82.03
34979;BME280;21185;50.978;13.720;2022-12-07T20:20:19;97672.75;;;3.61;82.14
34979;BME280;21185;50.978;13.720;2022-12-07T20:25:21;97673.69;;;3.60;82.03
34979;BME280;21185;50.978;13.720;2022-12-07T20:30:22;97674.66;;;3.59;82.20
34979;BME280;21185;50.978;13.720;2022-12-07T20:35:28;97678.28;;;3.56;82.18
34979;BME280;21185;50.978;13.720;2022-12-07T20:40:30;97668.97;;;3.55;82.05
34979;BME280;21185;50.978;13.720;2022-12-07T20:45:31;97665.72;;;3.53;82.25
34979;BME280;21185;50.978;13.720;2022-12-07T20:50:33;97673.56;;;3.52;81.93
34979;BME280;21185;50.978;13.720;2022-12-07T20:55:42;97669.38;;;3.51;82.28
34979;BME280;21185;50.978;13.720;2022-12-07T21:00:44;97664.38;;;3.49;82.04
34979;BME280;21185;50.978;13.720;2022-12-07T21:05:46;97675.44;;;3.50;81.98
34979;BME280;21185;50.978;13.720;2022-12-07T21:10:51;97665.44;;;3.47;81.89
34979;BME280;21185;50.978;13.720;2022-12-07T21:15:53;97663.81;;;3.46;81.97
34979;BME280;21185;50.978;13.720;2022-12-07T21:21:00;97666.38;;;3.46;82.05
34979;BME280;21185;50.978;13.720;2022-12-07T21:26:17;97664.63;;;3.46;82.04
34979;BME280;21185;50.978;13.720;2022-12-07T21:31:20;97662.19;;;3.45;82.19
34979;BME280;21185;50.978;13.720;2022-12-07T21:36:24;97651.81;;;3.46;82.16
34979;BME280;21185;50.978;13.720;2022-12-07T21:41:32;97670.44;;;3.48;81.91
34979;BME280;21185;50.978;13.720;2022-12-07T21:46:36;97661.81;;;3.49;81.99
34979;BME280;21185;50.978;13.720;2022-12-07T21:51:40;97654.09;;;3.49;82.04
34979;BME280;21185;50.978;13.720;2022-12-07T21:56:42;97656.53;;;3.51;81.77
34979;BME280;21185;50.978;13.720;2022-12-07T22:01:46;97653.97;;;3.51;81.83
34979;BME280;21185;50.978;13.720;2022-12-07T22:06:50;97640.19;;;3.52;81.90
34979;BME280;21185;50.978;13.720;2022-12-07T22:11:52;97653.72;;;3.54;81.92
34979;BME280;21185;50.978;13.720;2022-12-07T22:16:54;97657.91;;;3.55;81.89
34979;BME280;21185;50.978;13.720;2022-12-07T22:21:56;97657.91;;;3.55;81.92
34979;BME280;21185;50.978;13.720;2022-12-07T22:26:58;97669.66;;;3.57;81.91
34979;BME280;21185;50.978;13.720;2022-12-07T22:32:00;97659.25;;;3.59;82.06
34979;BME280;21185;50.978;13.720;2022-12-07T22:37:22;97660.88;;;3.60;81.79
34979;BME280;21185;50.978;13.720;2022-12-07T22:42:24;97652.22;;;3.61;81.81
34979;BME280;21185;50.978;13.720;2022-12-07T22:47:25;97648.72;;;3.62;82.00
34979;BME280;21185;50.978;13.720;2022-12-07T22:52:27;97640.06;;;3.63;81.97
34979;BME280;21185;50.978;13.720;2022-12-07T22:57:29;97639.28;;;3.63;81.89
34979;BME280;21185;50.978;13.720;2022-12-07T23:02:31;97634.28;;;3.61;81.88
34979;BME280;21185;50.978;13.720;2022-12-07T23:07:33;97632.78;;;3.58;81.92
34979;BME280;21185;50.978;13.720;2022-12-07T23:12:35;97633.88;;;3.56;81.83
34979;BME280;21185;50.978;13.720;2022-12-07T23:17:56;97635.75;;;3.54;81.69
34979;BME280;21185;50.978;13.720;2022-12-07T23:22:58;97634.13;;;3.53;81.78
34979;BME280;21185;50.978;13.720;2022-12-07T23:27:59;97632.63;;;3.50;81.81
34979;BME280;21185;50.978;13.720;2022-12-07T23:33:01;97630.88;;;3.51;81.79
34979;BME280;21185;50.978;13.720;2022-12-07T23:38:03;97629.94;;;3.52;81.66
34979;BME280;21185;50.978;13.720;2022-12-07T23:43:05;97624.81;;;3.52;81.69
34979;BME280;21185;50.978;13.720;2022-12-07T23:48:07;97621.56;;;3.50;81.72
34979;BME280;21185;50.978;13.720;2022-12-07T23:53:09;97610.50;;;3.49;81.82
34979;BME280;21185;50.978;13.720;2022-12-07T23:58:11;97607.94;;;3.49;81.74
